sensor_id;sensor_type;location;lat;lon;timestamp;P1;durP1;ratioP1;P2;durP2;ratioP2
5117;SDS011;2578;51.622;7.046;2023-04-01T00:01:25;10.10;;;9.50;;
5117;SDS011;2578;51.622;7.046;2023-04-01T00:03:51;10.60;;;10.00;;
5117;SDS011;2578;51.622;7.046;2023-04-01T00:06:17;11.43;;;10.47;;
5117;SDS011;2578;51.622;7.046;2023-04-01T00:08:44;11.53;;;10.73;;
5117;SDS011;2578;51.622;7.046;2023-04-01T00:11:09;10.70;;;10.10;;
5117;SDS011;2578;51.622;7.046;2023-04-01T00:13:35;11.43;;;10.73;;
5117;SDS011;2578;51.622;7.046;2023-04-01T00:16:01;10.43;;;9.83;;
5117;SDS011;2578;51.622;7.046;2023-04-01T00:18:27;10.80;;;10.00;;
5117;SDS011;2578;51.622;7.046;2023-04-01T00:20:53;12.60;;;11.50;;
5117;SDS011;2578;51.622;7.046;2023-04-01T00:23:19;11.03;;;10.33;;
5117;SDS011;2578;51.622;7.046;2023-04-01T00:25:45;11.60;;;10.90;;
5117;SDS011;2578;51.622;7.046;2023-04-01T00:28:13;12.50;;;11.60;;
5117;SDS011;2578;51.622;7.046;2023-04-01T00:30:39;11.27;;;10.57;;
5117;SDS011;2578;51.622;7.046;2023-04-01T00:33:05;10.60;;;10.00;;
5117;SDS011;2578;51.622;7.046;2023-04-01T00:35:31;10.47;;;9.87;;
5117;SDS011;2578;51.622;7.046;2023-04-01T00:37:57;11.70;;;10.90;;
5117;SDS011;2578;51.622;7.046;2023-04-01T00:40:45;11.00;;;10.30;;
5117;SDS011;2578;51.622;7.046;2023-04-01T00:43:14;11.13;;;10.43;;
5117;SDS011;2578;51.622;7.046;2023-04-01T00:45:46;10.73;;;10.13;;
5117;SDS011;2578;51.622;7.046;2023-04-01T00:48:17;10.73;;;9.93;;
5117;SDS011;2578;51.622;7.046;2023-04-01T00:50:50;10.80;;;10.20;;
5117;SDS011;2578;51.622;7.046;2023-04-01T00:53:20;10.80;;;10.20;;
5117;SDS011;2578;51.622;7.046;2023-04-01T00:56:21;11.20;;;10.50;;
5117;SDS011;2578;51.622;7.046;2023-04-01T00:58:43;11.60;;;10.90;;
5117;SDS011;2578;51.622;7.046;2023-04-01T01:01:12;11.17;;;10.50;;
5117;SDS011;2578;51.622;7.046;2023-04-01T01:03:38;10.90;;;10.30;;
5117;SDS011;2578;51.622;7.046;2023-04-01T01:08:51;12.73;;;11.53;;
5117;SDS011;2578;51.622;7.046;2023-04-01T01:11:19;11.10;;;10.40;;
5117;SDS011;2578;51.622;7.046;2023-04-01T01:16:45;12.57;;;11.57;;
5117;SDS011;2578;51.622;7.046;2023-04-01T01:19:25;11.67;;;10.97;;
5117;SDS011;2578;51.622;7.046;2023-04-01T01:27:34;11.80;;;11.10;;
5117;SDS011;2578;51.622;7.046;2023-04-01T01:30:26;11.80;;;10.90;;
5117;SDS011;2578;51.622;7.046;2023-04-01T01:35:37;12.90;;;12.00;;
5117;SDS011;2578;51.622;7.046;2023-04-01T01:38:07;12.53;;;11.73;;
5117;SDS011;2578;51.622;7.046;2023-04-01T01:40:36;12.57;;;11.87;;
5117;SDS011;2578;51.622;7.046;2023-04-01T01:43:05;12.30;;;11.60;;
5117;SDS011;2578;51.622;7.046;2023-04-01T01:45:35;12.87;;;12.10;;
5117;SDS011;2578;51.622;7.046;2023-04-01T01:48:05;15.27;;;14.10;;
5117;SDS011;2578;51.622;7.046;2023-04-01T01:50:34;13.27;;;12.47;;
5117;SDS011;2578;51.622;7.046;2023-04-01T01:53:04;13.47;;;12.37;;
5117;SDS011;2578;51.622;7.046;2023-04-01T01:55:32;12.23;;;11.53;;
5117;SDS011;2578;51.622;7.046;2023-04-01T02:00:50;13.27;;;12.47;;
5117;SDS011;2578;51.622;7.046;2023-04-01T02:03:26;14.53;;;13.67;;
5117;SDS011;2578;51.622;7.046;2023-04-01T02:05:56;13.67;;;12.77;;
5117;SDS011;2578;51.622;7.046;2023-04-01T02:08:38;13.80;;;12.90;;
5117;SDS011;2578;51.622;7.046;2023-04-01T02:11:11;12.40;;;11.70;;
5117;SDS011;2578;51.622;7.046;2023-04-01T02:16:16;13.20;;;12.40;;
5117;SDS011;2578;51.622;7.046;2023-04-01T02:18:48;13.10;;;12.30;;
5117;SDS011;2578;51.622;7.046;2023-04-01T02:21:18;13.00;;;12.20;;
5117;SDS011;2578;51.622;7.046;2023-04-01T02:23:47;12.70;;;12.00;;
5117;SDS011;2578;51.622;7.046;2023-04-01T02:26:14;12.57;;;11.77;;
5117;SDS011;2578;51.622;7.046;2023-04-01T02:28:40;12.10;;;11.40;;
5117;SDS011;2578;51.622;7.046;2023-04-01T02:31:08;11.80;;;11.10;;
5117;SDS011;2578;51.622;7.046;2023-04-01T02:33:35;11.93;;;11.20;;
5117;SDS011;2578;51.622;7.046;2023-04-01T02:36:02;12.63;;;11.93;;
5117;SDS011;2578;51.622;7.046;2023-04-01T02:38:29;12.50;;;11.80;;
5117;SDS011;2578;51.622;7.046;2023-04-01T02:40:58;12.90;;;12.10;;
5117;SDS011;2578;51.622;7.046;2023-04-01T02:43:26;13.13;;;12.33;;
5117;SDS011;2578;51.622;7.046;2023-04-01T02:45:52;11.90;;;11.20;;
5117;SDS011;2578;51.622;7.046;2023-04-01T02:48:17;12.43;;;11.53;;
5117;SDS011;2578;51.622;7.046;2023-04-01T02:50:43;12.23;;;11.33;;
5117;SDS011;2578;51.622;7.046;2023-04-01T02:53:08;11.20;;;10.50;;
5117;SDS011;2578;51.622;7.046;2023-04-01T02:55:34;12.37;;;11.47;;
5117;SDS011;2578;51.622;7.046;2023-04-01T02:58:00;12.00;;;11.30;;
5117;SDS011;2578;51.622;7.046;2023-04-01T03:00:26;11.03;;;10.40;;
5117;SDS011;2578;51.622;7.046;2023-04-01T03:02:52;12.10;;;11.40;;
5117;SDS011;2578;51.622;7.046;2023-04-01T03:05:18;13.83;;;12.80;;
5117;SDS011;2578;51.622;7.046;2023-04-01T03:07:44;13.10;;;12.27;;
5117;SDS011;2578;51.622;7.046;2023-04-01T03:10:10;13.17;;;12.27;;
5117;SDS011;2578;51.622;7.046;2023-04-01T03:12:35;12.60;;;11.90;;
5117;SDS011;2578;51.622;7.046;2023-04-01T03:15:01;12.80;;;12.00;;
5117;SDS011;2578;51.622;7.046;2023-04-01T03:17:28;14.43;;;13.47;;
5117;SDS011;2578;51.622;7.046;2023-04-01T03:19:54;12.90;;;12.10;;
5117;SDS011;2578;51.622;7.046;2023-04-01T03:22:19;12.30;;;11.60;;
5117;SDS011;2578;51.622;7.046;2023-04-01T03:24:46;12.30;;;11.60;;
5117;SDS011;2578;51.622;7.046;2023-04-01T03:27:12;14.07;;;13.10;;
5117;SDS011;2578;51.622;7.046;2023-04-01T03:29:38;13.07;;;12.27;;
5117;SDS011;2578;51.622;7.046;2023-04-01T03:32:04;13.20;;;12.40;;
5117;SDS011;2578;51.622;7.046;2023-04-01T03:34:30;14.23;;;13.43;;
5117;SDS011;2578;51.622;7.046;2023-04-01T03:36:55;12.80;;;12.10;;
5117;SDS011;2578;51.622;7.046;2023-04-01T03:39:21;12.70;;;12.00;;
5117;SDS011;2578;51.622;7.046;2023-04-01T03:41:47;12.83;;;12.10;;
5117;SDS011;2578;51.622;7.046;2023-04-01T03:44:12;12.97;;;12.27;;
5117;SDS011;2578;51.622;7.046;2023-04-01T03:46:38;12.80;;;12.10;;
5117;SDS011;2578;51.622;7.046;2023-04-01T03:49:10;12.60;;;11.90;;
5117;SDS011;2578;51.622;7.046;2023-04-01T03:51:40;12.50;;;11.80;;
5117;SDS011;2578;51.622;7.046;2023-04-01T03:54:07;14.40;;;13.10;;
5117;SDS011;2578;51.622;7.046;2023-04-01T03:56:34;12.70;;;12.00;;
5117;SDS011;2578;51.622;7.046;2023-04-01T03:59:04;12.70;;;11.93;;
5117;SDS011;2578;51.622;7.046;2023-04-01T04:01:31;12.83;;;12.03;;
5117;SDS011;2578;51.622;7.046;2023-04-01T04:03:56;12.17;;;11.40;;
5117;SDS011;2578;51.622;7.046;2023-04-01T04:06:23;11.60;;;10.90;;
5117;SDS011;2578;51.622;7.046;2023-04-01T04:08:49;11.30;;;10.60;;
5117;SDS011;2578;51.622;7.046;2023-04-01T04:11:14;12.77;;;11.87;;
5117;SDS011;2578;51.622;7.046;2023-04-01T04:13:40;12.00;;;11.30;;
5117;SDS011;2578;51.622;7.046;2023-04-01T04:16:07;12.10;;;11.40;;
5117;SDS011;2578;51.622;7.046;2023-04-01T04:18:34;12.03;;;11.33;;
5117;SDS011;2578;51.622;7.046;2023-04-01T04:21:00;11.33;;;10.63;;
5117;SDS011;2578;51.622;7.046;2023-04-01T04:23:26;11.30;;;10.60;;
5117;SDS011;2578;51.622;7.046;2023-04-01T04:25:57;11.07;;;10.43;;
5117;SDS011;2578;51.622;7.046;2023-04-01T04:28:28;11.77;;;10.97;;
5117;SDS011;2578;51.622;7.046;2023-04-01T04:30:54;11.40;;;10.60;;
5117;SDS011;2578;51.622;7.046;2023-04-01T04:33:21;10.20;;;9.60;;
5117;SDS011;2578;51.622;7.046;2023-04-01T04:35:47;11.97;;;11.10;;
5117;SDS011;2578;51.622;7.046;2023-04-01T04:38:13;12.93;;;11.83;;
5117;SDS011;2578;51.622;7.046;2023-04-01T04:40:40;11.30;;;10.60;;
5117;SDS011;2578;51.622;7.046;2023-04-01T04:43:06;11.23;;;10.60;;
5117;SDS011;2578;51.622;7.046;2023-04-01T04:45:35;11.50;;;10.80;;
5117;SDS011;2578;51.622;7.046;2023-04-01T04:48:00;10.60;;;10.00;;
5117;SDS011;2578;51.622;7.046;2023-04-01T04:50:26;10.03;;;9.43;;
5117;SDS011;2578;51.622;7.046;2023-04-01T04:52:51;10.20;;;9.60;;
5117;SDS011;2578;51.622;7.046;2023-04-01T04:55:17;10.87;;;10.17;;
5117;SDS011;2578;51.622;7.046;2023-04-01T04:57:43;18.53;;;11.07;;
5117;SDS011;2578;51.622;7.046;2023-04-01T05:00:08;10.10;;;9.50;;
5117;SDS011;2578;51.622;7.046;2023-04-01T05:02:37;11.30;;;10.60;;
5117;SDS011;2578;51.622;7.046;2023-04-01T05:05:03;11.00;;;10.40;;
5117;SDS011;2578;51.622;7.046;2023-04-01T05:07:29;10.67;;;10.07;;
5117;SDS011;2578;51.622;7.046;2023-04-01T05:09:55;10.50;;;9.90;;
5117;SDS011;2578;51.622;7.046;2023-04-01T05:12:21;11.13;;;10.33;;
5117;SDS011;2578;51.622;7.046;2023-04-01T05:14:46;10.50;;;9.90;;
5117;SDS011;2578;51.622;7.046;2023-04-01T05:17:12;11.20;;;10.50;;
5117;SDS011;2578;51.622;7.046;2023-04-01T05:19:38;10.30;;;9.70;;
5117;SDS011;2578;51.622;7.046;2023-04-01T05:22:04;12.37;;;11.37;;
5117;SDS011;2578;51.622;7.046;2023-04-01T05:24:30;10.50;;;9.90;;
5117;SDS011;2578;51.622;7.046;2023-04-01T05:26:56;10.40;;;9.80;;
5117;SDS011;2578;51.622;7.046;2023-04-01T05:29:23;10.00;;;9.40;;
5117;SDS011;2578;51.622;7.046;2023-04-01T05:31:49;10.20;;;9.60;;
5117;SDS011;2578;51.622;7.046;2023-04-01T05:34:15;10.20;;;9.60;;
5117;SDS011;2578;51.622;7.046;2023-04-01T05:36:41;10.37;;;9.77;;
5117;SDS011;2578;51.622;7.046;2023-04-01T05:39:07;10.80;;;10.20;;
5117;SDS011;2578;51.622;7.046;2023-04-01T05:41:36;10.30;;;9.70;;
5117;SDS011;2578;51.622;7.046;2023-04-01T05:44:03;12.03;;;11.33;;
5117;SDS011;2578;51.622;7.046;2023-04-01T05:46:29;11.33;;;10.63;;
5117;SDS011;2578;51.622;7.046;2023-04-01T05:48:55;10.90;;;10.30;;
5117;SDS011;2578;51.622;7.046;2023-04-01T05:51:21;10.43;;;9.83;;
5117;SDS011;2578;51.622;7.046;2023-04-01T05:53:47;11.90;;;11.00;;
5117;SDS011;2578;51.622;7.046;2023-04-01T05:56:13;10.80;;;10.20;;
5117;SDS011;2578;51.622;7.046;2023-04-01T05:58:39;11.73;;;11.00;;
5117;SDS011;2578;51.622;7.046;2023-04-01T06:01:09;11.60;;;10.90;;
5117;SDS011;2578;51.622;7.046;2023-04-01T06:03:36;12.10;;;11.30;;
5117;SDS011;2578;51.622;7.046;2023-04-01T06:06:02;12.93;;;12.13;;
5117;SDS011;2578;51.622;7.046;2023-04-01T06:08:29;13.17;;;12.17;;
5117;SDS011;2578;51.622;7.046;2023-04-01T06:16:44;10.23;;;9.63;;
5117;SDS011;2578;51.622;7.046;2023-04-01T06:19:29;12.10;;;11.20;;
5117;SDS011;2578;51.622;7.046;2023-04-01T06:22:04;10.10;;;9.50;;
5117;SDS011;2578;51.622;7.046;2023-04-01T06:32:58;12.63;;;11.70;;
5117;SDS011;2578;51.622;7.046;2023-04-01T06:54:40;10.93;;;10.23;;
5117;SDS011;2578;51.622;7.046;2023-04-01T06:59:59;10.27;;;9.57;;
5117;SDS011;2578;51.622;7.046;2023-04-01T07:02:39;10.63;;;10.03;;
5117;SDS011;2578;51.622;7.046;2023-04-01T07:05:11;13.43;;;12.43;;
5117;SDS011;2578;51.622;7.046;2023-04-01T07:07:41;15.00;;;13.80;;
5117;SDS011;2578;51.622;7.046;2023-04-01T07:10:20;11.60;;;10.90;;
5117;SDS011;2578;51.622;7.046;2023-04-01T07:13:10;11.30;;;10.40;;
5117;SDS011;2578;51.622;7.046;2023-04-01T07:15:43;11.87;;;10.77;;
5117;SDS011;2578;51.622;7.046;2023-04-01T07:18:16;11.30;;;10.60;;
5117;SDS011;2578;51.622;7.046;2023-04-01T07:20:47;12.40;;;11.50;;
5117;SDS011;2578;51.622;7.046;2023-04-01T07:23:21;11.03;;;10.43;;
5117;SDS011;2578;51.622;7.046;2023-04-01T07:25:53;12.00;;;11.20;;
5117;SDS011;2578;51.622;7.046;2023-04-01T07:28:23;13.60;;;12.60;;
5117;SDS011;2578;51.622;7.046;2023-04-01T07:33:39;14.57;;;13.40;;
5117;SDS011;2578;51.622;7.046;2023-04-01T07:56:43;12.00;;;11.20;;
5117;SDS011;2578;51.622;7.046;2023-04-01T08:04:17;10.80;;;10.20;;
5117;SDS011;2578;51.622;7.046;2023-04-01T08:12:21;11.00;;;10.40;;
5117;SDS011;2578;51.622;7.046;2023-04-01T08:15:21;11.17;;;10.50;;
5117;SDS011;2578;51.622;7.046;2023-04-01T08:20:40;11.80;;;11.00;;
5117;SDS011;2578;51.622;7.046;2023-04-01T08:23:11;11.53;;;10.83;;
5117;SDS011;2578;51.622;7.046;2023-04-01T08:28:39;12.20;;;11.40;;
5117;SDS011;2578;51.622;7.046;2023-04-01T08:31:13;10.53;;;9.83;;
5117;SDS011;2578;51.622;7.046;2023-04-01T08:33:47;10.20;;;9.60;;
5117;SDS011;2578;51.622;7.046;2023-04-01T08:36:24;10.27;;;9.63;;
5117;SDS011;2578;51.622;7.046;2023-04-01T08:39:02;10.57;;;9.90;;
5117;SDS011;2578;51.622;7.046;2023-04-01T08:41:33;11.80;;;11.07;;
5117;SDS011;2578;51.622;7.046;2023-04-01T08:46:46;11.20;;;10.50;;
5117;SDS011;2578;51.622;7.046;2023-04-01T08:49:17;11.60;;;10.90;;
5117;SDS011;2578;51.622;7.046;2023-04-01T08:55:44;11.70;;;10.90;;
5117;SDS011;2578;51.622;7.046;2023-04-01T09:32:15;13.70;;;12.70;;
5117;SDS011;2578;51.622;7.046;2023-04-01T09:34:53;14.80;;;13.53;;
5117;SDS011;2578;51.622;7.046;2023-04-01T09:37:21;13.10;;;12.30;;
5117;SDS011;2578;51.622;7.046;2023-04-01T09:40:03;13.37;;;12.57;;
5117;SDS011;2578;51.622;7.046;2023-04-01T09:45:47;13.57;;;12.70;;
5117;SDS011;2578;51.622;7.046;2023-04-01T10:17:00;14.10;;;13.20;;
5117;SDS011;2578;51.622;7.046;2023-04-01T10:22:17;14.60;;;13.60;;
5117;SDS011;2578;51.622;7.046;2023-04-01T10:41:29;13.17;;;12.37;;
5117;SDS011;2578;51.622;7.046;2023-04-01T10:50:02;14.03;;;13.20;;
5117;SDS011;2578;51.622;7.046;2023-04-01T11:06:46;11.90;;;11.20;;
5117;SDS011;2578;51.622;7.046;2023-04-01T11:37:59;10.60;;;10.00;;
5117;SDS011;2578;51.622;7.046;2023-04-01T11:40:51;10.80;;;10.10;;
5117;SDS011;2578;51.622;7.046;2023-04-01T11:43:42;12.60;;;11.50;;
5117;SDS011;2578;51.622;7.046;2023-04-01T12:06:35;13.13;;;11.80;;
5117;SDS011;2578;51.622;7.046;2023-04-01T12:17:51;12.40;;;11.60;;
5117;SDS011;2578;51.622;7.046;2023-04-01T12:26:19;15.27;;;13.90;;
5117;SDS011;2578;51.622;7.046;2023-04-01T12:37:47;16.27;;;14.63;;
5117;SDS011;2578;51.622;7.046;2023-04-01T12:57:28;11.27;;;10.57;;
5117;SDS011;2578;51.622;7.046;2023-04-01T13:07:59;11.50;;;10.70;;
5117;SDS011;2578;51.622;7.046;2023-04-01T13:19:03;11.60;;;10.80;;
5117;SDS011;2578;51.622;7.046;2023-04-01T13:38:28;12.03;;;11.23;;
5117;SDS011;2578;51.622;7.046;2023-04-01T13:48:02;13.93;;;12.90;;
5117;SDS011;2578;51.622;7.046;2023-04-01T13:51:02;11.77;;;10.70;;
5117;SDS011;2578;51.622;7.046;2023-04-01T13:53:44;12.37;;;10.53;;
5117;SDS011;2578;51.622;7.046;2023-04-01T13:56:18;10.77;;;9.97;;
5117;SDS011;2578;51.622;7.046;2023-04-01T13:58:57;11.37;;;10.67;;
5117;SDS011;2578;51.622;7.046;2023-04-01T14:04:30;12.37;;;11.20;;
5117;SDS011;2578;51.622;7.046;2023-04-01T14:10:40;12.53;;;11.43;;
5117;SDS011;2578;51.622;7.046;2023-04-01T14:19:03;14.30;;;13.10;;
5117;SDS011;2578;51.622;7.046;2023-04-01T14:27:44;11.47;;;10.73;;
5117;SDS011;2578;51.622;7.046;2023-04-01T14:33:14;11.87;;;11.07;;
5117;SDS011;2578;51.622;7.046;2023-04-01T14:39:00;12.30;;;11.50;;
5117;SDS011;2578;51.622;7.046;2023-04-01T14:52:38;15.67;;;14.47;;
5117;SDS011;2578;51.622;7.046;2023-04-01T14:55:21;14.70;;;13.63;;
5117;SDS011;2578;51.622;7.046;2023-04-01T14:57:58;14.63;;;13.67;;
5117;SDS011;2578;51.622;7.046;2023-04-01T15:00:47;12.53;;;11.80;;
5117;SDS011;2578;51.622;7.046;2023-04-01T15:03:22;21.73;;;19.50;;
5117;SDS011;2578;51.622;7.046;2023-04-01T15:06:13;15.27;;;14.10;;
5117;SDS011;2578;51.622;7.046;2023-04-01T15:09:17;17.53;;;16.23;;
5117;SDS011;2578;51.622;7.046;2023-04-01T15:12:19;15.97;;;14.37;;
5117;SDS011;2578;51.622;7.046;2023-04-01T15:17:45;12.53;;;11.73;;
5117;SDS011;2578;51.622;7.046;2023-04-01T15:20:33;14.63;;;13.33;;
5117;SDS011;2578;51.622;7.046;2023-04-01T15:31:40;14.20;;;13.10;;
5117;SDS011;2578;51.622;7.046;2023-04-01T15:35:19;14.77;;;13.63;;
5117;SDS011;2578;51.622;7.046;2023-04-01T15:40:30;12.80;;;12.00;;
5117;SDS011;2578;51.622;7.046;2023-04-01T15:49:10;11.30;;;10.60;;
5117;SDS011;2578;51.622;7.046;2023-04-01T15:52:16;10.77;;;9.97;;
5117;SDS011;2578;51.622;7.046;2023-04-01T16:14:42;11.30;;;10.60;;
5117;SDS011;2578;51.622;7.046;2023-04-01T16:19:59;10.80;;;10.10;;
5117;SDS011;2578;51.622;7.046;2023-04-01T16:22:31;9.90;;;9.30;;
5117;SDS011;2578;51.622;7.046;2023-04-01T16:27:58;10.77;;;9.87;;
5117;SDS011;2578;51.622;7.046;2023-04-01T16:30:44;11.33;;;10.50;;
5117;SDS011;2578;51.622;7.046;2023-04-01T16:33:22;10.43;;;9.73;;
5117;SDS011;2578;51.622;7.046;2023-04-01T16:35:54;12.17;;;11.03;;
5117;SDS011;2578;51.622;7.046;2023-04-01T16:41:17;11.13;;;10.33;;
5117;SDS011;2578;51.622;7.046;2023-04-01T16:43:53;11.30;;;10.40;;
5117;SDS011;2578;51.622;7.046;2023-04-01T16:49:32;10.43;;;9.83;;
5117;SDS011;2578;51.622;7.046;2023-04-01T16:52:36;9.47;;;8.77;;
5117;SDS011;2578;51.622;7.046;2023-04-01T16:55:41;9.40;;;8.80;;
5117;SDS011;2578;51.622;7.046;2023-04-01T16:58:19;9.50;;;8.80;;
5117;SDS011;2578;51.622;7.046;2023-04-01T17:00:54;9.50;;;8.90;;
5117;SDS011;2578;51.622;7.046;2023-04-01T17:03:32;9.80;;;9.10;;
5117;SDS011;2578;51.622;7.046;2023-04-01T17:06:07;9.60;;;8.90;;
5117;SDS011;2578;51.622;7.046;2023-04-01T17:14:14;9.40;;;8.80;;
5117;SDS011;2578;51.622;7.046;2023-04-01T17:25:28;9.03;;;8.33;;
5117;SDS011;2578;51.622;7.046;2023-04-01T17:28:31;8.97;;;8.37;;
5117;SDS011;2578;51.622;7.046;2023-04-01T17:47:12;10.03;;;9.17;;
5117;SDS011;2578;51.622;7.046;2023-04-01T17:52:46;10.27;;;8.83;;
5117;SDS011;2578;51.622;7.046;2023-04-01T18:01:04;10.37;;;9.13;;
5117;SDS011;2578;51.622;7.046;2023-04-01T18:20:31;9.23;;;8.53;;
5117;SDS011;2578;51.622;7.046;2023-04-01T18:25:45;9.97;;;9.17;;
5117;SDS011;2578;51.622;7.046;2023-04-01T18:28:22;10.57;;;9.50;;
5117;SDS011;2578;51.622;7.046;2023-04-01T18:33:31;8.20;;;7.60;;
5117;SDS011;2578;51.622;7.046;2023-04-01T18:36:33;10.13;;;9.33;;
5117;SDS011;2578;51.622;7.046;2023-04-01T18:41:47;8.20;;;7.60;;
5117;SDS011;2578;51.622;7.046;2023-04-01T18:46:55;8.20;;;7.60;;
5117;SDS011;2578;51.622;7.046;2023-04-01T18:49:33;8.50;;;7.90;;
5117;SDS011;2578;51.622;7.046;2023-04-01T18:52:33;7.70;;;7.20;;
5117;SDS011;2578;51.622;7.046;2023-04-01T19:03:21;7.30;;;6.80;;
5117;SDS011;2578;51.622;7.046;2023-04-01T19:05:53;7.90;;;7.27;;
5117;SDS011;2578;51.622;7.046;2023-04-01T19:08:26;12.60;;;9.53;;
5117;SDS011;2578;51.622;7.046;2023-04-01T19:16:21;9.13;;;7.23;;
5117;SDS011;2578;51.622;7.046;2023-04-01T19:27:11;8.00;;;7.40;;
5117;SDS011;2578;51.622;7.046;2023-04-01T19:29:45;7.50;;;7.00;;
5117;SDS011;2578;51.622;7.046;2023-04-01T19:34:57;8.60;;;7.90;;
5117;SDS011;2578;51.622;7.046;2023-04-01T19:37:37;7.90;;;7.27;;
5117;SDS011;2578;51.622;7.046;2023-04-01T19:40:29;8.60;;;8.00;;
5117;SDS011;2578;51.622;7.046;2023-04-01T19:43:44;8.10;;;7.60;;
5117;SDS011;2578;51.622;7.046;2023-04-01T19:51:34;9.10;;;8.50;;
5117;SDS011;2578;51.622;7.046;2023-04-01T19:56:47;9.00;;;8.40;;
5117;SDS011;2578;51.622;7.046;2023-04-01T20:01:59;9.43;;;8.83;;
5117;SDS011;2578;51.622;7.046;2023-04-01T20:04:40;9.43;;;8.83;;
5117;SDS011;2578;51.622;7.046;2023-04-01T20:07:19;9.00;;;8.40;;
5117;SDS011;2578;51.622;7.046;2023-04-01T20:10:08;9.73;;;9.13;;
5117;SDS011;2578;51.622;7.046;2023-04-01T20:15:34;9.47;;;8.87;;
5117;SDS011;2578;51.622;7.046;2023-04-01T20:18:08;10.30;;;9.60;;
5117;SDS011;2578;51.622;7.046;2023-04-01T20:20:41;10.17;;;9.57;;
5117;SDS011;2578;51.622;7.046;2023-04-01T20:23:38;12.70;;;11.70;;
5117;SDS011;2578;51.622;7.046;2023-04-01T20:26:08;10.73;;;10.03;;
5117;SDS011;2578;51.622;7.046;2023-04-01T20:28:48;10.87;;;10.13;;
5117;SDS011;2578;51.622;7.046;2023-04-01T20:31:33;10.80;;;10.10;;
5117;SDS011;2578;51.622;7.046;2023-04-01T20:34:15;11.30;;;10.60;;
5117;SDS011;2578;51.622;7.046;2023-04-01T20:42:52;10.50;;;9.90;;
5117;SDS011;2578;51.622;7.046;2023-04-01T20:45:37;11.40;;;10.60;;
5117;SDS011;2578;51.622;7.046;2023-04-01T20:50:48;10.00;;;9.40;;
5117;SDS011;2578;51.622;7.046;2023-04-01T20:53:35;10.93;;;10.23;;
5117;SDS011;2578;51.622;7.046;2023-04-01T20:58:48;10.60;;;10.00;;
5117;SDS011;2578;51.622;7.046;2023-04-01T21:06:44;12.20;;;11.20;;
5117;SDS011;2578;51.622;7.046;2023-04-01T21:14:55;11.37;;;10.67;;
5117;SDS011;2578;51.622;7.046;2023-04-01T21:26:24;11.60;;;10.90;;
5117;SDS011;2578;51.622;7.046;2023-04-01T21:29:42;12.80;;;11.93;;
5117;SDS011;2578;51.622;7.046;2023-04-01T21:32:02;11.30;;;10.60;;
5117;SDS011;2578;51.622;7.046;2023-04-01T21:39:50;10.80;;;10.10;;
5117;SDS011;2578;51.622;7.046;2023-04-01T21:42:48;11.17;;;10.47;;
5117;SDS011;2578;51.622;7.046;2023-04-01T21:45:32;10.70;;;10.10;;
5117;SDS011;2578;51.622;7.046;2023-04-01T22:07:17;9.70;;;9.00;;
5117;SDS011;2578;51.622;7.046;2023-04-01T22:09:50;10.20;;;9.60;;
5117;SDS011;2578;51.622;7.046;2023-04-01T22:22:52;11.50;;;10.80;;
5117;SDS011;2578;51.622;7.046;2023-04-01T22:25:36;14.30;;;13.40;;
5117;SDS011;2578;51.622;7.046;2023-04-01T22:28:21;11.10;;;10.40;;
5117;SDS011;2578;51.622;7.046;2023-04-01T22:30:55;10.97;;;10.37;;
5117;SDS011;2578;51.622;7.046;2023-04-01T22:33:29;10.60;;;9.97;;
5117;SDS011;2578;51.622;7.046;2023-04-01T22:38:49;11.00;;;10.30;;
5117;SDS011;2578;51.622;7.046;2023-04-01T22:41:53;12.40;;;11.60;;
5117;SDS011;2578;51.622;7.046;2023-04-01T22:52:28;11.57;;;10.87;;
5117;SDS011;2578;51.622;7.046;2023-04-01T22:54:58;11.57;;;10.87;;
5117;SDS011;2578;51.622;7.046;2023-04-01T23:00:05;11.10;;;10.50;;
5117;SDS011;2578;51.622;7.046;2023-04-01T23:02:40;12.93;;;12.07;;
5117;SDS011;2578;51.622;7.046;2023-04-01T23:05:26;11.33;;;10.63;;
5117;SDS011;2578;51.622;7.046;2023-04-01T23:08:00;10.97;;;10.37;;
5117;SDS011;2578;51.622;7.046;2023-04-01T23:10:51;10.40;;;9.70;;
5117;SDS011;2578;51.622;7.046;2023-04-01T23:13:39;10.10;;;9.50;;
5117;SDS011;2578;51.622;7.046;2023-04-01T23:16:29;11.40;;;10.70;;
5117;SDS011;2578;51.622;7.046;2023-04-01T23:19:17;10.23;;;9.63;;
5117;SDS011;2578;51.622;7.046;2023-04-01T23:21:51;9.90;;;9.30;;
5117;SDS011;2578;51.622;7.046;2023-04-01T23:24:41;10.10;;;9.50;;
5117;SDS011;2578;51.622;7.046;2023-04-01T23:27:24;10.97;;;10.27;;
5117;SDS011;2578;51.622;7.046;2023-04-01T23:29:56;10.40;;;9.80;;
5117;SDS011;2578;51.622;7.046;2023-04-01T23:32:22;10.80;;;10.20;;
5117;SDS011;2578;51.622;7.046;2023-04-01T23:34:51;10.93;;;10.27;;
5117;SDS011;2578;51.622;7.046;2023-04-01T23:37:22;11.60;;;10.80;;
5117;SDS011;2578;51.622;7.046;2023-04-01T23:39:50;10.50;;;9.67;;
5117;SDS011;2578;51.622;7.046;2023-04-01T23:44:57;9.60;;;9.00;;
5117;SDS011;2578;51.622;7.046;2023-04-01T23:47:30;9.60;;;9.00;;
5117;SDS011;2578;51.622;7.046;2023-04-01T23:50:03;10.13;;;9.53;;
5117;SDS011;2578;51.622;7.046;2023-04-01T23:52:35;9.60;;;9.00;;
